createdAt,value
2019-01-20T00:01:56.676Z,72.16
2019-01-20T00:04:28.931Z,72.33
2019-01-20T00:07:00.086Z,72.23
2019-01-20T00:09:34.283Z,71.72
2019-01-20T00:12:06.307Z,71.53
2019-01-20T00:14:37.535Z,71.79
2019-01-20T00:17:08.697Z,72.53
2019-01-20T00:19:39.850Z,72.88
2019-01-20T00:22:12.406Z,72.45
2019-01-20T00:24:43.576Z,72.40
2019-01-20T00:27:14.649Z,72.79
2019-01-20T00:29:45.801Z,73.20
2019-01-20T00:32:16.895Z,73.06
2019-01-20T00:34:48.878Z,73.26
2019-01-20T00:37:20.058Z,73.20
2019-01-20T00:39:51.296Z,73.10
2019-01-20T00:42:22.383Z,73.24
2019-01-20T00:44:53.521Z,73.24
2019-01-20T00:47:24.841Z,73.11
2019-01-20T00:49:56.190Z,73.08
2019-01-20T00:52:27.527Z,73.04
2019-01-20T00:54:58.681Z,73.58
2019-01-20T00:57:30.165Z,73.92
2019-01-20T01:00:01.476Z,73.11
2019-01-20T01:02:32.646Z,73.46
2019-01-20T01:05:03.990Z,72.88
2019-01-20T01:07:35.203Z,72.37
2019-01-20T01:10:07.172Z,72.43
2019-01-20T01:12:38.616Z,72.53
2019-01-20T01:15:10.584Z,72.71
2019-01-20T01:17:41.691Z,72.40
2019-01-20T01:20:14.108Z,72.79
2019-01-20T01:22:45.345Z,73.23
2019-01-20T01:25:18.185Z,73.51
2019-01-20T01:27:49.417Z,73.75
2019-01-20T01:30:22.788Z,74.49
2019-01-20T01:32:53.974Z,74.49
2019-01-20T01:35:25.114Z,73.87
2019-01-20T01:37:56.250Z,73.07
2019-01-20T01:40:27.380Z,72.71
2019-01-20T01:42:58.551Z,72.94
2019-01-20T01:45:29.626Z,72.98
2019-01-20T01:48:00.852Z,73.01
2019-01-20T01:50:32.192Z,73.14
2019-01-20T01:53:03.304Z,73.23
2019-01-20T01:55:34.353Z,73.33
2019-01-20T01:58:05.495Z,73.45
2019-01-20T02:00:36.854Z,73.75
2019-01-20T02:03:08.016Z,74.04
2019-01-20T02:05:38.990Z,74.57
2019-01-20T02:08:10.424Z,74.95
2019-01-20T02:10:42.442Z,75.08
2019-01-20T02:13:13.612Z,74.90
2019-01-20T02:15:44.751Z,74.98
2019-01-20T02:18:15.836Z,74.37
2019-01-20T02:20:48.141Z,74.31
2019-01-20T02:23:19.240Z,74.46
2019-01-20T02:25:50.382Z,74.55
2019-01-20T02:28:21.556Z,74.94
2019-01-20T02:30:52.718Z,74.98
2019-01-20T02:33:23.770Z,74.89
2019-01-20T02:35:54.748Z,74.92
2019-01-20T02:38:25.832Z,74.80
2019-01-20T02:40:57.943Z,74.90
2019-01-20T02:43:29.098Z,74.78
2019-01-20T02:46:00.332Z,75.44
2019-01-20T02:48:31.570Z,75.34
2019-01-20T02:51:02.676Z,74.30
2019-01-20T02:53:33.788Z,73.52
2019-01-20T02:56:05.541Z,73.96
2019-01-20T02:58:36.898Z,73.50
2019-01-20T03:01:08.158Z,73.72
2019-01-20T03:03:39.161Z,73.81
2019-01-20T03:06:10.350Z,73.86
2019-01-20T03:08:41.422Z,73.77
2019-01-20T03:11:12.608Z,74.05
2019-01-20T03:13:43.762Z,74.13
2019-01-20T03:16:14.814Z,73.94
2019-01-20T03:18:46.138Z,74.08
2019-01-20T03:21:17.325Z,74.44
2019-01-20T03:23:48.440Z,74.40
2019-01-20T03:26:19.577Z,74.42
2019-01-20T03:28:50.651Z,74.20
2019-01-20T03:31:21.894Z,74.77
2019-01-20T03:33:52.991Z,75.15
2019-01-20T03:36:24.117Z,75.06
2019-01-20T03:38:55.184Z,74.81
2019-01-20T03:41:26.274Z,74.95
2019-01-20T03:43:57.612Z,75.00
2019-01-20T03:46:28.597Z,74.86
2019-01-20T03:48:59.783Z,74.88
2019-01-20T03:51:30.989Z,74.79
2019-01-20T03:54:02.158Z,75.78
2019-01-20T03:56:33.340Z,75.53
2019-01-20T03:59:04.726Z,74.64
2019-01-20T04:01:36.111Z,74.38
2019-01-20T04:04:07.273Z,74.36
2019-01-20T04:06:38.414Z,74.88
2019-01-20T04:09:09.600Z,75.58
2019-01-20T04:11:40.784Z,75.69
2019-01-20T04:14:11.824Z,76.04
2019-01-20T04:16:43.021Z,75.59
2019-01-20T04:19:14.131Z,74.95
2019-01-20T04:21:45.291Z,74.67
2019-01-20T04:24:16.290Z,75.35
2019-01-20T04:26:47.386Z,74.97
2019-01-20T04:29:18.658Z,74.17
2019-01-20T04:31:49.758Z,74.32
2019-01-20T04:34:20.910Z,74.82
2019-01-20T04:36:52.046Z,75.24
2019-01-20T04:39:23.125Z,75.71
2019-01-20T04:41:54.249Z,76.09
2019-01-20T04:46:54.729Z,75.73
2019-01-20T04:49:25.815Z,75.48
2019-01-20T04:51:56.978Z,75.63
2019-01-20T04:54:28.230Z,75.46
2019-01-20T04:56:59.304Z,75.18
2019-01-20T04:59:30.376Z,75.85
2019-01-20T05:02:01.458Z,76.23
2019-01-20T05:04:32.472Z,75.07
2019-01-20T05:07:03.586Z,74.33
2019-01-20T05:09:34.669Z,74.03
2019-01-20T05:12:06.026Z,74.17
2019-01-20T05:14:37.198Z,73.25
2019-01-20T05:17:08.335Z,73.53
2019-01-20T05:19:39.478Z,73.93
2019-01-20T05:22:10.574Z,74.16
2019-01-20T05:24:41.568Z,75.01
2019-01-20T05:27:12.769Z,74.73
2019-01-20T05:29:43.975Z,74.29
2019-01-20T05:32:15.079Z,74.09
2019-01-20T05:34:46.147Z,74.15
2019-01-20T05:37:17.463Z,74.07
2019-01-20T05:39:48.590Z,73.62
2019-01-20T05:42:19.702Z,74.91
2019-01-20T05:44:51.168Z,74.91
2019-01-20T05:47:22.547Z,74.61
2019-01-20T05:49:53.773Z,73.98
2019-01-20T05:52:24.945Z,73.96
2019-01-20T05:54:56.105Z,74.59
2019-01-20T05:57:28.481Z,73.65
2019-01-20T05:59:59.701Z,73.42
2019-01-20T06:02:30.836Z,73.48
2019-01-20T06:05:01.936Z,73.54
2019-01-20T06:07:33.111Z,74.31
2019-01-20T06:10:05.475Z,74.46
2019-01-20T06:12:36.729Z,74.25
2019-01-20T06:15:12.105Z,73.16
2019-01-20T06:17:43.602Z,72.86
2019-01-20T06:20:15.728Z,73.13
2019-01-20T06:22:46.945Z,73.25
2019-01-20T06:25:18.247Z,73.37
2019-01-20T06:27:49.798Z,73.43
2019-01-20T06:30:29.442Z,73.98
2019-01-20T06:33:00.555Z,73.22
2019-01-20T06:35:31.897Z,73.00
2019-01-20T06:38:03.025Z,73.11
2019-01-20T06:40:34.104Z,73.04
2019-01-20T06:43:05.334Z,73.37
2019-01-20T06:45:36.413Z,73.56
2019-01-20T06:48:07.463Z,73.67
2019-01-20T06:50:39.675Z,73.92
2019-01-20T06:53:10.830Z,74.00
2019-01-20T06:55:41.896Z,74.10
2019-01-20T06:58:12.954Z,74.82
2019-01-20T07:00:44.047Z,74.35
2019-01-20T07:03:15.036Z,73.95
2019-01-20T07:05:46.189Z,73.41
2019-01-20T07:08:17.238Z,73.34
2019-01-20T07:10:48.379Z,73.45
2019-01-20T07:13:19.534Z,73.56
2019-01-20T07:15:50.717Z,73.47
2019-01-20T07:18:21.742Z,73.44
2019-01-20T07:20:52.954Z,73.17
2019-01-20T07:23:24.108Z,73.05
2019-01-20T07:25:55.289Z,73.09
2019-01-20T07:28:26.380Z,73.13
2019-01-20T07:30:57.583Z,73.45
2019-01-20T07:33:28.813Z,73.00
2019-01-20T07:35:59.805Z,72.42
2019-01-20T07:38:31.074Z,71.72
2019-01-20T07:41:02.180Z,71.54
2019-01-20T07:43:33.256Z,71.41
2019-01-20T07:46:04.497Z,72.12
2019-01-20T07:48:35.771Z,71.23
2019-01-20T07:51:06.917Z,71.52
2019-01-20T07:53:37.992Z,71.11
2019-01-20T07:56:09.100Z,69.10
2019-01-20T07:58:40.326Z,69.11
2019-01-20T08:01:11.394Z,68.99
2019-01-20T08:03:42.372Z,68.89
2019-01-20T08:06:13.608Z,68.65
2019-01-20T08:08:44.829Z,68.37
2019-01-20T08:11:15.976Z,67.47
2019-01-20T08:13:46.983Z,66.93
2019-01-20T08:16:19.289Z,66.64
2019-01-20T08:18:50.397Z,65.95
2019-01-20T08:21:21.710Z,66.63
2019-01-20T08:23:52.960Z,65.21
2019-01-20T08:26:24.161Z,65.02
2019-01-20T08:28:55.333Z,63.27
2019-01-20T08:31:26.446Z,62.76
2019-01-20T08:33:57.621Z,62.67
2019-01-20T08:36:28.730Z,62.35
2019-01-20T08:38:59.865Z,62.09
2019-01-20T08:41:31.019Z,61.97
2019-01-20T08:44:02.284Z,61.75
2019-01-20T08:46:45.192Z,61.71
2019-01-20T08:49:16.274Z,61.40
2019-01-20T08:51:47.418Z,61.06
2019-01-20T08:54:18.566Z,61.08
2019-01-20T08:56:49.633Z,60.65
2019-01-20T08:59:20.849Z,60.43
2019-01-20T09:01:51.954Z,60.57
2019-01-20T09:04:23.045Z,60.87
2019-01-20T09:06:54.199Z,59.58
2019-01-20T09:09:25.227Z,59.51
2019-01-20T09:11:56.362Z,59.57
2019-01-20T09:14:27.590Z,60.26
2019-01-20T09:16:58.698Z,59.67
2019-01-20T09:19:29.867Z,59.50
2019-01-20T09:22:01.081Z,59.61
2019-01-20T09:24:32.280Z,59.44
2019-01-20T09:27:03.480Z,59.19
2019-01-20T09:29:34.644Z,59.16
2019-01-20T09:32:05.832Z,58.83
2019-01-20T09:34:37.030Z,58.50
2019-01-20T09:37:08.201Z,58.67
2019-01-20T09:39:39.385Z,59.21
2019-01-20T09:42:10.486Z,58.03
2019-01-20T09:44:41.558Z,57.44
2019-01-20T09:47:12.634Z,57.46
2019-01-20T09:49:43.712Z,56.84
2019-01-20T09:52:14.796Z,56.78
2019-01-20T09:54:45.859Z,56.92
2019-01-20T09:57:16.945Z,56.84
2019-01-20T09:59:48.091Z,56.72
2019-01-20T10:02:19.225Z,57.14
2019-01-20T10:04:50.369Z,57.15
2019-01-20T10:07:21.516Z,57.21
2019-01-20T10:09:52.488Z,56.55
2019-01-20T10:12:23.636Z,56.39
2019-01-20T10:14:54.903Z,56.60
2019-01-20T10:17:25.982Z,56.36
2019-01-20T10:19:57.031Z,55.87
2019-01-20T10:22:28.370Z,54.90
2019-01-20T10:24:59.458Z,53.82
2019-01-20T10:27:30.614Z,53.61
2019-01-20T10:30:01.837Z,53.40
2019-01-20T10:32:33.103Z,53.08
2019-01-20T10:35:04.465Z,53.97
2019-01-20T10:37:36.600Z,54.30
2019-01-20T10:40:08.427Z,54.36
2019-01-20T10:42:39.719Z,53.63
2019-01-20T10:45:11.319Z,53.11
2019-01-20T10:47:42.498Z,53.89
2019-01-20T10:50:13.958Z,53.59
2019-01-20T10:52:45.207Z,53.41
2019-01-20T10:55:16.330Z,53.39
2019-01-20T10:57:47.712Z,53.13
2019-01-20T11:00:22.204Z,53.57
2019-01-20T11:02:53.294Z,54.03
2019-01-20T11:05:30.126Z,52.94
2019-01-20T11:07:57.296Z,54.18
2019-01-20T11:10:28.465Z,51.50
2019-01-20T11:12:59.722Z,50.95
2019-01-20T11:15:30.975Z,50.76
2019-01-20T11:18:02.367Z,50.95
2019-01-20T11:20:33.711Z,50.89
2019-01-20T11:23:05.977Z,52.46
2019-01-20T11:25:39.915Z,52.86
2019-01-20T11:28:12.075Z,52.93
2019-01-20T11:30:43.183Z,53.63
2019-01-20T11:33:14.405Z,54.38
2019-01-20T11:35:45.640Z,54.82
2019-01-20T11:38:16.672Z,55.49
2019-01-20T11:40:47.808Z,54.79
2019-01-20T11:43:18.886Z,53.95
2019-01-20T11:45:50.123Z,53.39
2019-01-20T11:48:21.295Z,53.68
2019-01-20T11:50:52.530Z,53.54
2019-01-20T11:53:26.185Z,53.84
2019-01-20T11:55:57.532Z,54.70
2019-01-20T11:58:28.627Z,55.64
2019-01-20T12:00:59.815Z,55.44
2019-01-20T12:03:30.899Z,54.91
2019-01-20T12:06:02.178Z,55.60
2019-01-20T12:08:33.365Z,56.16
2019-01-20T12:11:04.478Z,55.94
2019-01-20T12:13:35.664Z,55.24
2019-01-20T12:16:06.840Z,54.96
2019-01-20T12:18:38.022Z,54.85
2019-01-20T12:21:09.405Z,54.72
2019-01-20T12:23:41.443Z,54.65
2019-01-20T12:26:12.555Z,54.13
2019-01-20T12:28:43.777Z,53.55
2019-01-20T12:31:14.938Z,51.45
2019-01-20T12:33:46.121Z,49.33
2019-01-20T12:36:17.078Z,50.21
2019-01-20T12:38:48.151Z,49.62
2019-01-20T12:41:19.419Z,49.59
2019-01-20T12:43:50.598Z,50.66
2019-01-20T12:46:21.652Z,51.71
2019-01-20T12:48:55.864Z,51.10
2019-01-20T12:51:28.655Z,51.07
2019-01-20T12:54:01.229Z,50.61
2019-01-20T12:56:32.570Z,49.78
2019-01-20T12:59:04.056Z,50.14
2019-01-20T13:01:35.268Z,50.70
2019-01-20T13:04:07.422Z,51.59
2019-01-20T13:06:38.522Z,52.56
2019-01-20T13:09:10.177Z,53.57
2019-01-20T13:11:41.227Z,53.76
2019-01-20T13:14:12.391Z,54.40
2019-01-20T13:16:45.211Z,54.72
2019-01-20T13:19:16.356Z,55.49
2019-01-20T13:21:47.446Z,56.42
2019-01-20T13:24:20.063Z,56.62
2019-01-20T13:26:51.196Z,56.77
2019-01-20T13:29:22.300Z,56.20
2019-01-20T13:31:53.855Z,56.30
2019-01-20T13:34:24.870Z,56.24
2019-01-20T13:36:55.938Z,56.45
2019-01-20T13:39:26.945Z,56.41
2019-01-20T13:41:58.044Z,56.78
2019-01-20T13:44:29.177Z,57.08
2019-01-20T13:47:00.273Z,57.50
2019-01-20T13:49:31.319Z,55.98
2019-01-20T13:52:02.482Z,55.40
2019-01-20T13:54:33.601Z,55.14
2019-01-20T13:57:06.382Z,54.53
2019-01-20T13:59:37.559Z,54.23
2019-01-20T14:02:08.697Z,52.93
2019-01-20T14:04:39.914Z,52.92
2019-01-20T14:07:11.033Z,52.83
2019-01-20T14:09:42.049Z,52.64
2019-01-20T14:12:13.217Z,53.22
2019-01-20T14:14:44.300Z,53.83
2019-01-20T14:17:15.338Z,54.01
2019-01-20T14:19:46.454Z,54.13
2019-01-20T14:22:18.103Z,54.67
2019-01-20T14:24:49.192Z,55.41
2019-01-20T14:27:20.365Z,54.68
2019-01-20T14:29:51.475Z,56.54
2019-01-20T14:32:22.621Z,56.67
2019-01-20T14:34:53.642Z,57.66
2019-01-20T14:37:24.713Z,58.05
2019-01-20T14:39:55.866Z,58.17
2019-01-20T14:42:26.900Z,58.65
2019-01-20T14:45:01.124Z,59.37
2019-01-20T14:47:31.412Z,59.30
2019-01-20T14:50:02.589Z,59.56
2019-01-20T14:52:33.919Z,59.70
2019-01-20T14:55:06.209Z,60.09
2019-01-20T14:57:37.388Z,60.64
2019-01-20T15:00:17.959Z,60.19
2019-01-20T15:02:49.313Z,60.06
2019-01-20T15:05:20.525Z,60.35
2019-01-20T15:07:51.690Z,60.81
2019-01-20T15:10:22.856Z,61.06
2019-01-20T15:12:55.000Z,61.05
2019-01-20T15:15:29.979Z,61.39
2019-01-20T15:18:01.134Z,61.83
2019-01-20T15:20:32.231Z,62.47
2019-01-20T15:23:03.299Z,62.51
2019-01-20T15:25:34.479Z,62.93
2019-01-20T15:28:06.745Z,63.26
2019-01-20T15:30:37.967Z,64.11
2019-01-20T15:33:09.117Z,63.17
2019-01-20T15:35:40.176Z,63.83
2019-01-20T15:38:11.321Z,63.69
2019-01-20T15:40:42.492Z,63.77
2019-01-20T15:43:13.473Z,64.01
2019-01-20T15:45:44.634Z,64.22
2019-01-20T15:48:16.005Z,64.62
2019-01-20T15:50:47.189Z,64.95
2019-01-20T15:53:18.277Z,65.35
2019-01-20T15:55:49.567Z,65.71
2019-01-20T15:58:20.655Z,65.78
2019-01-20T16:00:51.698Z,65.86
2019-01-20T16:03:22.940Z,65.98
2019-01-20T16:05:54.001Z,66.32
2019-01-20T16:08:25.169Z,66.97
2019-01-20T16:10:56.265Z,67.26
2019-01-20T16:13:27.354Z,67.34
2019-01-20T16:15:58.398Z,67.23
2019-01-20T16:18:29.504Z,67.99
2019-01-20T16:21:00.601Z,68.11
2019-01-20T16:23:32.757Z,68.16
2019-01-20T16:26:03.877Z,68.40
2019-01-20T16:28:35.049Z,68.87
2019-01-20T16:31:06.211Z,70.03
2019-01-20T16:33:37.364Z,70.04
2019-01-20T16:36:08.462Z,70.64
2019-01-20T16:38:39.602Z,70.83
2019-01-20T16:41:11.161Z,69.97
2019-01-20T16:43:42.727Z,69.79
2019-01-20T16:46:13.881Z,69.87
2019-01-20T16:48:45.060Z,70.35
2019-01-20T16:51:16.135Z,70.25
2019-01-20T16:53:47.215Z,70.24
2019-01-20T16:56:18.481Z,70.48
2019-01-20T16:58:51.402Z,70.76
2019-01-20T17:01:22.835Z,71.57
2019-01-20T17:03:53.932Z,71.33
2019-01-20T17:06:25.135Z,70.87
2019-01-20T17:08:56.395Z,70.85
2019-01-20T17:11:27.584Z,71.19
2019-01-20T17:13:58.600Z,70.72
2019-01-20T17:16:30.162Z,70.99
2019-01-20T17:19:01.280Z,71.35
2019-01-20T17:21:33.411Z,71.17
2019-01-20T17:24:04.812Z,71.88
2019-01-20T17:26:35.843Z,70.93
2019-01-20T17:29:07.018Z,70.58
2019-01-20T17:31:38.126Z,70.23
2019-01-20T17:34:09.321Z,70.52
2019-01-20T17:36:40.420Z,70.95
2019-01-20T17:39:12.008Z,71.10
2019-01-20T17:41:43.459Z,71.11
2019-01-20T17:44:14.604Z,70.96
2019-01-20T17:46:45.808Z,71.21
2019-01-20T17:49:16.936Z,71.45
2019-01-20T17:51:48.055Z,71.32
2019-01-20T17:54:19.210Z,72.00
2019-01-20T17:56:50.381Z,71.82
2019-01-20T17:59:21.607Z,71.67
2019-01-20T18:01:52.769Z,71.53
2019-01-20T18:04:23.954Z,71.62
2019-01-20T18:06:55.059Z,71.88
2019-01-20T18:09:27.767Z,72.15
2019-01-20T18:11:58.924Z,72.04
2019-01-20T18:14:30.053Z,72.52
2019-01-20T18:17:01.251Z,72.23
2019-01-20T18:19:34.898Z,72.74
2019-01-20T18:22:06.081Z,72.89
2019-01-20T18:24:37.200Z,73.25
2019-01-20T18:27:08.302Z,72.43
2019-01-20T18:29:39.371Z,72.40
2019-01-20T18:32:10.619Z,72.18
2019-01-20T18:34:41.805Z,71.67
2019-01-20T18:37:12.904Z,72.59
2019-01-20T18:39:43.935Z,72.49
2019-01-20T18:42:14.974Z,72.95
2019-01-20T18:44:45.995Z,72.75
2019-01-20T18:47:17.150Z,72.77
2019-01-20T18:49:48.306Z,72.99
2019-01-20T18:52:19.350Z,72.35
2019-01-20T18:54:50.454Z,72.58
2019-01-20T18:57:21.627Z,72.68
2019-01-20T18:59:52.805Z,72.38
2019-01-20T19:02:23.979Z,72.00
2019-01-20T19:04:55.073Z,71.86
2019-01-20T19:07:26.188Z,71.55
2019-01-20T19:09:57.284Z,71.46
2019-01-20T19:12:28.803Z,71.85
2019-01-20T19:15:00.000Z,72.40
2019-01-20T19:17:31.277Z,72.55
2019-01-20T19:20:02.477Z,71.86
2019-01-20T19:22:33.579Z,72.43
2019-01-20T19:25:05.367Z,72.71
2019-01-20T19:27:36.561Z,72.59
2019-01-20T19:30:11.425Z,73.15
2019-01-20T19:32:43.675Z,73.84
2019-01-20T19:35:16.107Z,73.51
2019-01-20T19:37:47.287Z,73.42
2019-01-20T19:40:18.527Z,73.42
2019-01-20T19:42:49.680Z,73.18
2019-01-20T19:45:21.114Z,73.39
2019-01-20T19:47:53.135Z,73.65
2019-01-20T19:50:24.603Z,74.14
2019-01-20T19:52:55.949Z,73.48
2019-01-20T19:55:29.576Z,72.91
2019-01-20T19:58:00.909Z,72.80
2019-01-20T20:00:32.902Z,72.78
2019-01-20T20:03:04.160Z,72.71
2019-01-20T20:05:35.349Z,72.54
2019-01-20T20:08:06.688Z,72.57
2019-01-20T20:10:37.857Z,73.18
2019-01-20T20:13:09.025Z,73.30
2019-01-20T20:15:40.190Z,73.50
2019-01-20T20:18:11.462Z,73.03
2019-01-20T20:20:42.545Z,72.75
2019-01-20T20:23:13.564Z,73.19
2019-01-20T20:25:44.701Z,73.13
2019-01-20T20:28:15.855Z,72.93
2019-01-20T20:30:47.004Z,72.59
2019-01-20T20:33:18.118Z,72.39
2019-01-20T20:35:49.380Z,72.31
2019-01-20T20:38:20.552Z,73.03
2019-01-20T20:40:51.661Z,73.12
2019-01-20T20:43:22.726Z,72.84
2019-01-20T20:45:53.852Z,73.48
2019-01-20T20:48:25.258Z,73.05
2019-01-20T20:50:56.274Z,72.36
2019-01-20T20:53:27.456Z,72.68
2019-01-20T20:55:58.614Z,72.65
2019-01-20T20:58:29.916Z,72.40
2019-01-20T21:01:01.102Z,72.36
2019-01-20T21:03:35.109Z,72.86
2019-01-20T21:06:06.256Z,72.49
2019-01-20T21:08:37.374Z,73.54
2019-01-20T21:11:08.544Z,75.03
2019-01-20T21:13:39.717Z,73.91
2019-01-20T21:16:10.871Z,73.70
2019-01-20T21:18:42.017Z,73.94
2019-01-20T21:21:13.177Z,74.59
2019-01-20T21:23:44.322Z,74.71
2019-01-20T21:26:15.418Z,74.47
2019-01-20T21:28:46.551Z,73.93
2019-01-20T21:31:17.714Z,74.51
2019-01-20T21:33:48.980Z,73.43
2019-01-20T21:36:20.069Z,73.15
2019-01-20T21:38:51.155Z,72.97
2019-01-20T21:41:22.311Z,73.09
2019-01-20T21:43:53.615Z,74.13
2019-01-20T21:46:24.709Z,73.68
2019-01-20T21:48:55.817Z,73.60
2019-01-20T21:51:26.916Z,72.82
2019-01-20T21:53:58.127Z,72.60
2019-01-20T21:56:29.258Z,73.17
2019-01-20T21:59:00.528Z,73.07
2019-01-20T22:01:31.714Z,73.71
2019-01-20T22:04:02.883Z,72.57
2019-01-20T22:06:33.891Z,72.75
2019-01-20T22:09:07.385Z,73.28
2019-01-20T22:11:39.255Z,72.73
2019-01-20T22:14:10.474Z,72.54
2019-01-20T22:16:41.622Z,73.21
2019-01-20T22:19:12.786Z,73.32
2019-01-20T22:21:43.954Z,73.78
2019-01-20T22:24:15.056Z,74.25
2019-01-20T22:26:46.134Z,74.09
2019-01-20T22:29:17.168Z,74.38
2019-01-20T22:31:48.236Z,74.94
2019-01-20T22:34:19.236Z,74.85
2019-01-20T22:36:50.244Z,74.89
2019-01-20T22:39:21.359Z,74.67
2019-01-20T22:41:52.612Z,74.30
2019-01-20T22:44:23.703Z,74.44
2019-01-20T22:47:00.028Z,74.04
2019-01-20T22:49:27.730Z,73.97
2019-01-20T22:51:58.812Z,73.50
2019-01-20T22:54:29.984Z,73.55
2019-01-20T22:57:01.049Z,73.60
2019-01-20T22:59:32.047Z,73.97
2019-01-20T23:02:03.705Z,73.53
2019-01-20T23:04:34.706Z,72.98
2019-01-20T23:07:06.117Z,73.50
2019-01-20T23:09:37.208Z,73.78
2019-01-20T23:12:08.240Z,74.16
2019-01-20T23:14:39.411Z,73.53
2019-01-20T23:17:10.613Z,73.54
2019-01-20T23:19:41.861Z,73.80
2019-01-20T23:22:12.927Z,73.33
2019-01-20T23:24:44.083Z,73.07
2019-01-20T23:27:15.089Z,73.16
2019-01-20T23:29:46.370Z,73.35
2019-01-20T23:32:17.500Z,73.46
2019-01-20T23:34:48.841Z,73.78
2019-01-20T23:37:20.161Z,72.69
2019-01-20T23:39:51.447Z,72.88
2019-01-20T23:42:22.589Z,73.70
2019-01-20T23:44:53.761Z,73.57
2019-01-20T23:47:24.912Z,73.54
2019-01-20T23:49:57.637Z,74.02
2019-01-20T23:52:29.690Z,73.70
2019-01-20T23:55:00.779Z,73.83
2019-01-20T23:57:31.968Z,73.54
